Weikert, Pennsylvania
Current Conditions -  °F | °C
As of 1:53 AM on Monday 24 Nov 2014 (Local Time) from KSEG Reporting Station
Heavy Rain Heavy Rain  
Wind Chill: 55°   Ceiling: 1800
Heat Index: 55°   Visibility: 4mi
Dew Point: 51°   Wind: 5mph
Humidity: 86%   Direction: 140°SE
Pressure: 29.64"   Gusts: NA
Location:  40.86°N, 77.3°W
Report Text: KSEG 240653Z AUTO 14004KT 4SM +RA BR BKN018 OVC025 13/11 A2964 RMK AO2 PRESFR SLP034 P0014 T01280106 $
Loading
Personal Weather Stations






























Interactive Weather Map New forecast layout! Learn more

10-Day Weather Forecast

Advertisements
Track Severe Weather on mobile